Check out our new PWSWeather beta!
PWSweather.com
Personal Weather Stations
Station Observations
PICKERING
North Yorkshire, PickeringGB

North YorkshirePickeringGB

Lat: 54.2494, Lon: -0.7725

Elevation: 192

Station Type: Oregon Scientific WMR100

High Low Average
Temperature 75.7°F24.3°C 40.8°F4.9°C 54.8°F12.7°C
Dew Point 57.2°F14.0°C 33.8°F1.0°C 44.0°F6.7°C
Winds 4.9 mph 7.9 kmh Calm Calm 1.0 mph SE1.6 kmh SE
Wind Gusts 8.7 mph14.0 kmh -- 3.0 mph4.8 kmh
Humidity 77% 50% 67%
Pressure 30.09 in1019.0 mb 29.89 in1012.2 mb -
Precipitation 0.00 in0.0 mm - -
Hour Temp Dew Point Humidity Winds Wind Gusts Pressure Precip Precip Rate Daily Precip Total
12:00 AM 46.2°F7.9°C 37.4°F3.0°C 72% 1.0 mph NE1.6 kmh NE 2.5 mph4.0 kmh 30.09 in1019.0 mb 0.00 in0.0 mm 0.00 in0.0 mm 0.00 in0.0 mm
12:05 AM 46.2°F7.9°C 37.4°F3.0°C 72% 0.7 mph NE1.1 kmh NE 2.0 mph3.2 kmh 30.09 in1019.0 mb 0.00 in0.0 mm 0.00 in0.0 mm 0.00 in0.0 mm
12:10 AM 46.2°F7.9°C 37.4°F3.0°C 72% 0.8 mph NE1.3 kmh NE 2.5 mph4.0 kmh 30.09 in1019.0 mb 0.00 in0.0 mm 0.00 in0.0 mm 0.00 in0.0 mm
12:15 AM 46.2°F7.9°C 37.4°F3.0°C 72% 0.7 mph NE1.1 kmh NE 2.5 mph4.0 kmh 30.09 in1019.0 mb 0.00 in0.0 mm 0.00 in0.0 mm 0.00 in0.0 mm
12:20 AM 46.2°F7.9°C 37.4°F3.0°C 72% 0.4 mph NE0.6 kmh NE 1.6 mph2.6 kmh 30.09 in1019.0 mb 0.00 in0.0 mm 0.00 in0.0 mm 0.00 in0.0 mm
12:25 AM 46.0°F7.8°C 37.4°F3.0°C 72% 1.2 mph NE1.9 kmh NE 2.7 mph4.3 kmh 30.09 in1019.0 mb 0.00 in0.0 mm 0.00 in0.0 mm 0.00 in0.0 mm
12:30 AM 46.0°F7.8°C 37.4°F3.0°C 72% 2.0 mph NE3.2 kmh NE 3.1 mph5.0 kmh 30.09 in1019.0 mb 0.00 in0.0 mm 0.00 in0.0 mm 0.00 in0.0 mm
12:35 AM 45.9°F7.7°C 37.4°F3.0°C 72% 2.0 mph NE3.2 kmh NE 3.1 mph5.0 kmh 30.09 in1019.0 mb 0.00 in0.0 mm 0.00 in0.0 mm 0.00 in0.0 mm
12:40 AM 46.0°F7.8°C 37.4°F3.0°C 72% 1.7 mph NE2.7 kmh NE 2.2 mph3.5 kmh 30.09 in1019.0 mb 0.00 in0.0 mm 0.00 in0.0 mm 0.00 in0.0 mm
12:45 AM 45.7°F7.6°C 37.4°F3.0°C 72% 1.5 mph NE2.4 kmh NE 2.0 mph3.2 kmh 30.09 in1019.0 mb 0.00 in0.0 mm 0.00 in0.0 mm 0.00 in0.0 mm
12:50 AM 45.7°F7.6°C 37.4°F3.0°C 72% 1.6 mph NE2.6 kmh NE 2.2 mph3.5 kmh 30.09 in1019.0 mb 0.00 in0.0 mm 0.00 in0.0 mm 0.00 in0.0 mm
12:55 AM 45.7°F7.6°C 37.4°F3.0°C 73% 2.3 mph ENE3.7 kmh ENE 3.6 mph5.8 kmh 30.09 in1019.0 mb 0.00 in0.0 mm 0.00 in0.0 mm 0.00 in0.0 mm
01:00 AM 45.5°F7.5°C 37.4°F3.0°C 73% 2.6 mph NE4.2 kmh NE 3.6 mph5.8 kmh 30.09 in1019.0 mb 0.00 in0.0 mm 0.00 in0.0 mm 0.00 in0.0 mm
01:05 AM 45.7°F7.6°C 37.4°F3.0°C 73% 2.1 mph NE3.4 kmh NE 3.1 mph5.0 kmh 30.09 in1019.0 mb 0.00 in0.0 mm 0.00 in0.0 mm 0.00 in0.0 mm
01:10 AM 45.5°F7.5°C 37.4°F3.0°C 73% 1.3 mph NE2.1 kmh NE 2.7 mph4.3 kmh 30.07 in1018.3 mb 0.00 in0.0 mm 0.00 in0.0 mm 0.00 in0.0 mm
01:15 AM 45.5°F7.5°C 37.4°F3.0°C 73% 1.4 mph NE2.3 kmh NE 2.7 mph4.3 kmh 30.07 in1018.3 mb 0.00 in0.0 mm 0.00 in0.0 mm 0.00 in0.0 mm
01:20 AM 45.3°F7.4°C 37.4°F3.0°C 73% 1.7 mph NE2.7 kmh NE 2.7 mph4.3 kmh 30.07 in1018.3 mb 0.00 in0.0 mm 0.00 in0.0 mm 0.00 in0.0 mm
01:25 AM 45.1°F7.3°C 37.4°F3.0°C 73% 1.4 mph NE2.3 kmh NE 2.5 mph4.0 kmh 30.07 in1018.3 mb 0.00 in0.0 mm 0.00 in0.0 mm 0.00 in0.0 mm
01:30 AM 45.1°F7.3°C 37.4°F3.0°C 73% 1.0 mph NNE1.6 kmh NNE 1.6 mph2.6 kmh 30.07 in1018.3 mb 0.00 in0.0 mm 0.00 in0.0 mm 0.00 in0.0 mm
01:35 AM 45.0°F7.2°C 37.4°F3.0°C 73% 0.7 mph NNE1.1 kmh NNE 1.6 mph2.6 kmh 30.07 in1018.3 mb 0.00 in0.0 mm 0.00 in0.0 mm 0.00 in0.0 mm
01:40 AM 44.8°F7.1°C 37.4°F3.0°C 73% 1.0 mph NE1.6 kmh NE 1.6 mph2.6 kmh 30.07 in1018.3 mb 0.00 in0.0 mm 0.00 in0.0 mm 0.00 in0.0 mm
01:45 AM 44.6°F7.0°C 37.4°F3.0°C 73% 1.4 mph NE2.3 kmh NE 2.5 mph4.0 kmh 30.07 in1018.3 mb 0.00 in0.0 mm 0.00 in0.0 mm 0.00 in0.0 mm
01:50 AM 44.6°F7.0°C 37.4°F3.0°C 74% 1.4 mph NE2.3 kmh NE 2.5 mph4.0 kmh 30.07 in1018.3 mb 0.00 in0.0 mm 0.00 in0.0 mm 0.00 in0.0 mm
01:55 AM 44.6°F7.0°C 37.4°F3.0°C 74% 1.0 mph NE1.6 kmh NE 2.0 mph3.2 kmh 30.07 in1018.3 mb 0.00 in0.0 mm 0.00 in0.0 mm 0.00 in0.0 mm
02:00 AM 44.4°F6.9°C 37.4°F3.0°C 73% 0.6 mph NE1.0 kmh NE 2.0 mph3.2 kmh 30.07 in1018.3 mb 0.00 in0.0 mm 0.00 in0.0 mm 0.00 in0.0 mm
02:05 AM 44.2°F6.8°C 35.6°F2.0°C 73% 0.3 mph NE0.5 kmh NE 1.3 mph2.1 kmh 30.07 in1018.3 mb 0.00 in0.0 mm 0.00 in0.0 mm 0.00 in0.0 mm
02:10 AM 44.1°F6.7°C 35.6°F2.0°C 73% 0.6 mph NE1.0 kmh NE 1.1 mph1.8 kmh 30.07 in1018.3 mb 0.00 in0.0 mm 0.00 in0.0 mm 0.00 in0.0 mm
02:15 AM 43.9°F6.6°C 35.6°F2.0°C 73% 0.8 mph NE1.3 kmh NE 1.3 mph2.1 kmh 30.07 in1018.3 mb 0.00 in0.0 mm 0.00 in0.0 mm 0.00 in0.0 mm
02:20 AM 43.7°F6.5°C 35.6°F2.0°C 73% 0.4 mph NE0.6 kmh NE 1.3 mph2.1 kmh 30.07 in1018.3 mb 0.00 in0.0 mm 0.00 in0.0 mm 0.00 in0.0 mm
02:25 AM 43.5°F6.4°C 35.6°F2.0°C 73% 0.1 mph NE0.2 kmh NE 0.9 mph1.4 kmh 30.07 in1018.3 mb 0.00 in0.0 mm 0.00 in0.0 mm 0.00 in0.0 mm
02:30 AM 43.3°F6.3°C 35.6°F2.0°C 73% 0.5 mph NE0.8 kmh NE 2.0 mph3.2 kmh 30.07 in1018.3 mb 0.00 in0.0 mm 0.00 in0.0 mm 0.00 in0.0 mm
02:35 AM 43.3°F6.3°C 35.6°F2.0°C 73% 0.5 mph NE0.8 kmh NE 2.0 mph3.2 kmh 30.07 in1018.3 mb 0.00 in0.0 mm 0.00 in0.0 mm 0.00 in0.0 mm
02:40 AM 43.0°F6.1°C 35.6°F2.0°C 73% 0.5 mph NE0.8 kmh NE 1.1 mph1.8 kmh 30.04 in1017.3 mb 0.00 in0.0 mm 0.00 in0.0 mm 0.00 in0.0 mm
02:45 AM 43.0°F6.1°C 35.6°F2.0°C 74% 1.1 mph NE1.8 kmh NE 1.6 mph2.6 kmh 30.04 in1017.3 mb 0.00 in0.0 mm 0.00 in0.0 mm 0.00 in0.0 mm
02:50 AM 42.8°F6.0°C 35.6°F2.0°C 74% 1.4 mph NE2.3 kmh NE 2.0 mph3.2 kmh 30.04 in1017.3 mb 0.00 in0.0 mm 0.00 in0.0 mm 0.00 in0.0 mm
02:55 AM 42.8°F6.0°C 35.6°F2.0°C 74% 1.2 mph NE1.9 kmh NE 2.0 mph3.2 kmh 30.04 in1017.3 mb 0.00 in0.0 mm 0.00 in0.0 mm 0.00 in0.0 mm
03:00 AM 42.6°F5.9°C 35.6°F2.0°C 74% 1.1 mph NE1.8 kmh NE 1.6 mph2.6 kmh 30.04 in1017.3 mb 0.00 in0.0 mm 0.00 in0.0 mm 0.00 in0.0 mm
03:05 AM 42.4°F5.8°C 35.6°F2.0°C 74% 0.8 mph NE1.3 kmh NE 1.6 mph2.6 kmh 30.04 in1017.3 mb 0.00 in0.0 mm 0.00 in0.0 mm 0.00 in0.0 mm
03:10 AM 42.3°F5.7°C 35.6°F2.0°C 74% 0.7 mph NE1.1 kmh NE 2.0 mph3.2 kmh 30.04 in1017.3 mb 0.00 in0.0 mm 0.00 in0.0 mm 0.00 in0.0 mm
03:15 AM 42.3°F5.7°C 35.6°F2.0°C 74% 1.3 mph NE2.1 kmh NE 2.0 mph3.2 kmh 30.04 in1017.3 mb 0.00 in0.0 mm 0.00 in0.0 mm 0.00 in0.0 mm
03:20 AM 42.3°F5.7°C 35.6°F2.0°C 74% 1.2 mph NE1.9 kmh NE 2.0 mph3.2 kmh 30.04 in1017.3 mb 0.00 in0.0 mm 0.00 in0.0 mm 0.00 in0.0 mm
03:25 AM 42.1°F5.6°C 35.6°F2.0°C 74% 1.2 mph NE1.9 kmh NE 2.2 mph3.5 kmh 30.04 in1017.3 mb 0.00 in0.0 mm 0.00 in0.0 mm 0.00 in0.0 mm
03:30 AM 42.1°F5.6°C 35.6°F2.0°C 74% 1.8 mph NE2.9 kmh NE 2.2 mph3.5 kmh 30.04 in1017.3 mb 0.00 in0.0 mm 0.00 in0.0 mm 0.00 in0.0 mm
03:35 AM 41.7°F5.4°C 33.8°F1.0°C 74% 1.8 mph NE2.9 kmh NE 2.2 mph3.5 kmh 30.04 in1017.3 mb 0.00 in0.0 mm 0.00 in0.0 mm 0.00 in0.0 mm
03:40 AM 41.9°F5.5°C 35.6°F2.0°C 74% 1.7 mph NE2.7 kmh NE 2.9 mph4.7 kmh 30.04 in1017.3 mb 0.00 in0.0 mm 0.00 in0.0 mm 0.00 in0.0 mm
03:45 AM 41.5°F5.3°C 33.8°F1.0°C 74% 1.7 mph NE2.7 kmh NE 2.9 mph4.7 kmh 30.04 in1017.3 mb 0.00 in0.0 mm 0.00 in0.0 mm 0.00 in0.0 mm
03:50 AM 41.7°F5.4°C 33.8°F1.0°C 74% 1.6 mph NE2.6 kmh NE 2.0 mph3.2 kmh 30.04 in1017.3 mb 0.00 in0.0 mm 0.00 in0.0 mm 0.00 in0.0 mm
03:55 AM 41.5°F5.3°C 33.8°F1.0°C 74% 1.3 mph NE2.1 kmh NE 2.0 mph3.2 kmh 30.04 in1017.3 mb 0.00 in0.0 mm 0.00 in0.0 mm 0.00 in0.0 mm
04:00 AM 41.2°F5.1°C 33.8°F1.0°C 74% 0.8 mph NE1.3 kmh NE 1.6 mph2.6 kmh 30.04 in1017.3 mb 0.00 in0.0 mm 0.00 in0.0 mm 0.00 in0.0 mm
04:05 AM 41.2°F5.1°C 33.8°F1.0°C 74% 0.8 mph NE1.3 kmh NE 1.3 mph2.1 kmh 30.04 in1017.3 mb 0.00 in0.0 mm 0.00 in0.0 mm 0.00 in0.0 mm
04:10 AM 41.2°F5.1°C 33.8°F1.0°C 74% 1.2 mph NE1.9 kmh NE 2.2 mph3.5 kmh 30.04 in1017.3 mb 0.00 in0.0 mm 0.00 in0.0 mm 0.00 in0.0 mm
04:15 AM 41.0°F5.0°C 33.8°F1.0°C 74% 1.4 mph NE2.3 kmh NE 2.2 mph3.5 kmh 30.04 in1017.3 mb 0.00 in0.0 mm 0.00 in0.0 mm 0.00 in0.0 mm
04:20 AM 40.8°F4.9°C 33.8°F1.0°C 74% 1.1 mph NE1.8 kmh NE 1.6 mph2.6 kmh 30.04 in1017.3 mb 0.00 in0.0 mm 0.00 in0.0 mm 0.00 in0.0 mm
04:25 AM 40.8°F4.9°C 33.8°F1.0°C 74% 1.6 mph NE2.6 kmh NE 2.7 mph4.3 kmh 30.04 in1017.3 mb 0.00 in0.0 mm 0.00 in0.0 mm 0.00 in0.0 mm
04:30 AM 41.0°F5.0°C 33.8°F1.0°C 74% 2.0 mph NE3.2 kmh NE 2.7 mph4.3 kmh 30.04 in1017.3 mb 0.00 in0.0 mm 0.00 in0.0 mm 0.00 in0.0 mm
04:35 AM 41.0°F5.0°C 33.8°F1.0°C 74% 1.5 mph NE2.4 kmh NE 2.7 mph4.3 kmh 30.04 in1017.3 mb 0.00 in0.0 mm 0.00 in0.0 mm 0.00 in0.0 mm
04:40 AM 41.0°F5.0°C 33.8°F1.0°C 75% 1.5 mph NE2.4 kmh NE 2.7 mph4.3 kmh 30.04 in1017.3 mb 0.00 in0.0 mm 0.00 in0.0 mm 0.00 in0.0 mm
04:45 AM 41.2°F5.1°C 33.8°F1.0°C 75% 1.6 mph NE2.6 kmh NE 2.7 mph4.3 kmh 30.04 in1017.3 mb 0.00 in0.0 mm 0.00 in0.0 mm 0.00 in0.0 mm
04:50 AM 41.2°F5.1°C 33.8°F1.0°C 75% 1.3 mph NE2.1 kmh NE 2.7 mph4.3 kmh 30.04 in1017.3 mb 0.00 in0.0 mm 0.00 in0.0 mm 0.00 in0.0 mm
04:55 AM 41.0°F5.0°C 33.8°F1.0°C 75% 1.1 mph NE1.8 kmh NE 2.2 mph3.5 kmh 30.01 in1016.3 mb 0.00 in0.0 mm 0.00 in0.0 mm 0.00 in0.0 mm
05:00 AM 41.2°F5.1°C 33.8°F1.0°C 75% 1.4 mph NE2.3 kmh NE 2.7 mph4.3 kmh 30.01 in1016.3 mb 0.00 in0.0 mm 0.00 in0.0 mm 0.00 in0.0 mm
05:05 AM 41.4°F5.2°C 33.8°F1.0°C 75% 1.5 mph NE2.4 kmh NE 2.7 mph4.3 kmh 30.01 in1016.3 mb 0.00 in0.0 mm 0.00 in0.0 mm 0.00 in0.0 mm
05:10 AM 41.4°F5.2°C 33.8°F1.0°C 75% 1.3 mph NE2.1 kmh NE 2.0 mph3.2 kmh 30.04 in1017.3 mb 0.00 in0.0 mm 0.00 in0.0 mm 0.00 in0.0 mm
05:15 AM 41.4°F5.2°C 33.8°F1.0°C 75% 1.5 mph NE2.4 kmh NE 2.0 mph3.2 kmh 30.04 in1017.3 mb 0.00 in0.0 mm 0.00 in0.0 mm 0.00 in0.0 mm
05:20 AM 41.5°F5.3°C 35.6°F2.0°C 75% 1.9 mph NE3.1 kmh NE 2.5 mph4.0 kmh 30.04 in1017.3 mb 0.00 in0.0 mm 0.00 in0.0 mm 0.00 in0.0 mm
05:25 AM 41.9°F5.5°C 35.6°F2.0°C 75% 1.5 mph NE2.4 kmh NE 2.5 mph4.0 kmh 30.01 in1016.3 mb 0.00 in0.0 mm 0.00 in0.0 mm 0.00 in0.0 mm
05:30 AM 41.9°F5.5°C 35.6°F2.0°C 75% 1.2 mph NE1.9 kmh NE 2.7 mph4.3 kmh 30.01 in1016.3 mb 0.00 in0.0 mm 0.00 in0.0 mm 0.00 in0.0 mm
05:35 AM 42.1°F5.6°C 35.6°F2.0°C 75% 1.3 mph NE2.1 kmh NE 2.7 mph4.3 kmh 30.01 in1016.3 mb 0.00 in0.0 mm 0.00 in0.0 mm 0.00 in0.0 mm
05:40 AM 42.3°F5.7°C 35.6°F2.0°C 76% 0.7 mph NE1.1 kmh NE 1.6 mph2.6 kmh 30.01 in1016.3 mb 0.00 in0.0 mm 0.00 in0.0 mm 0.00 in0.0 mm
05:45 AM 42.8°F6.0°C 35.6°F2.0°C 76% 0.2 mph NE0.3 kmh NE 1.1 mph1.8 kmh 30.01 in1016.3 mb 0.00 in0.0 mm 0.00 in0.0 mm 0.00 in0.0 mm
05:50 AM 43.0°F6.1°C 35.6°F2.0°C 76% 0.8 mph NE1.3 kmh NE 2.0 mph3.2 kmh 30.01 in1016.3 mb 0.00 in0.0 mm 0.00 in0.0 mm 0.00 in0.0 mm
05:55 AM 43.3°F6.3°C 37.4°F3.0°C 76% 1.1 mph NE1.8 kmh NE 2.0 mph3.2 kmh 30.01 in1016.3 mb 0.00 in0.0 mm 0.00 in0.0 mm 0.00 in0.0 mm
06:00 AM 44.1°F6.7°C 37.4°F3.0°C 76% 0.8 mph NE1.3 kmh NE 1.3 mph2.1 kmh 30.01 in1016.3 mb 0.00 in0.0 mm 0.00 in0.0 mm 0.00 in0.0 mm
06:05 AM 44.6°F7.0°C 37.4°F3.0°C 77% 0.5 mph NE0.8 kmh NE 1.3 mph2.1 kmh 30.01 in1016.3 mb 0.00 in0.0 mm 0.00 in0.0 mm 0.00 in0.0 mm
06:10 AM 45.3°F7.4°C 39.2°F4.0°C 77% 0.2 mph NE0.3 kmh NE 1.1 mph1.8 kmh 30.01 in1016.3 mb 0.00 in0.0 mm 0.00 in0.0 mm 0.00 in0.0 mm
06:15 AM 45.7°F7.6°C 39.2°F4.0°C 77% Calm Calm -- 30.01 in1016.3 mb 0.00 in0.0 mm 0.00 in0.0 mm 0.00 in0.0 mm
06:20 AM 45.9°F7.7°C 39.2°F4.0°C 77% 0.1 mph NE0.2 kmh NE 1.1 mph1.8 kmh 30.01 in1016.3 mb 0.00 in0.0 mm 0.00 in0.0 mm 0.00 in0.0 mm
06:25 AM 46.2°F7.9°C 39.2°F4.0°C 77% 0.1 mph NE0.2 kmh NE 1.1 mph1.8 kmh 30.01 in1016.3 mb 0.00 in0.0 mm 0.00 in0.0 mm 0.00 in0.0 mm
06:30 AM 46.4°F8.0°C 41.0°F5.0°C 77% 0.3 mph NE0.5 kmh NE 1.1 mph1.8 kmh 30.01 in1016.3 mb 0.00 in0.0 mm 0.00 in0.0 mm 0.00 in0.0 mm
06:35 AM 46.8°F8.2°C 41.0°F5.0°C 77% 0.3 mph NE0.5 kmh NE 1.1 mph1.8 kmh 30.01 in1016.3 mb 0.00 in0.0 mm 0.00 in0.0 mm 0.00 in0.0 mm
06:40 AM 46.9°F8.3°C 41.0°F5.0°C 77% 0.1 mph NE0.2 kmh NE 0.9 mph1.4 kmh 30.01 in1016.3 mb 0.00 in0.0 mm 0.00 in0.0 mm 0.00 in0.0 mm
06:45 AM 47.1°F8.4°C 41.0°F5.0°C 77% 0.1 mph NE0.2 kmh NE 0.9 mph1.4 kmh 30.01 in1016.3 mb 0.00 in0.0 mm 0.00 in0.0 mm 0.00 in0.0 mm
06:50 AM 47.3°F8.5°C 41.0°F5.0°C 77% 0.1 mph NE0.2 kmh NE 0.9 mph1.4 kmh 30.01 in1016.3 mb 0.00 in0.0 mm 0.00 in0.0 mm 0.00 in0.0 mm
06:55 AM 47.3°F8.5°C 41.0°F5.0°C 77% 0.2 mph NE0.3 kmh NE 0.9 mph1.4 kmh 30.01 in1016.3 mb 0.00 in0.0 mm 0.00 in0.0 mm 0.00 in0.0 mm
07:00 AM 47.3°F8.5°C 41.0°F5.0°C 77% 0.3 mph N0.5 kmh N 1.1 mph1.8 kmh 30.01 in1016.3 mb 0.00 in0.0 mm 0.00 in0.0 mm 0.00 in0.0 mm
07:05 AM 47.5°F8.6°C 41.0°F5.0°C 77% 0.2 mph WNW0.3 kmh WNW 1.1 mph1.8 kmh 30.01 in1016.3 mb 0.00 in0.0 mm 0.00 in0.0 mm 0.00 in0.0 mm
07:10 AM 47.8°F8.8°C 42.8°F6.0°C 77% 0.3 mph WSW0.5 kmh WSW 1.3 mph2.1 kmh 30.01 in1016.3 mb 0.00 in0.0 mm 0.00 in0.0 mm 0.00 in0.0 mm
07:15 AM 48.4°F9.1°C 41.0°F5.0°C 76% 1.3 mph SW2.1 kmh SW 2.7 mph4.3 kmh 30.01 in1016.3 mb 0.00 in0.0 mm 0.00 in0.0 mm 0.00 in0.0 mm
07:20 AM 48.6°F9.2°C 42.8°F6.0°C 76% 1.7 mph WSW2.7 kmh WSW 2.7 mph4.3 kmh 30.01 in1016.3 mb 0.00 in0.0 mm 0.00 in0.0 mm 0.00 in0.0 mm
07:25 AM 48.9°F9.4°C 42.8°F6.0°C 75% 1.5 mph WSW2.4 kmh WSW 2.7 mph4.3 kmh 30.01 in1016.3 mb 0.00 in0.0 mm 0.00 in0.0 mm 0.00 in0.0 mm
07:30 AM 49.6°F9.8°C 42.8°F6.0°C 75% 1.3 mph SW2.1 kmh SW 3.4 mph5.5 kmh 30.01 in1016.3 mb 0.00 in0.0 mm 0.00 in0.0 mm 0.00 in0.0 mm
07:35 AM 49.8°F9.9°C 42.8°F6.0°C 75% 1.5 mph SW2.4 kmh SW 3.4 mph5.5 kmh 30.01 in1016.3 mb 0.00 in0.0 mm 0.00 in0.0 mm 0.00 in0.0 mm
07:40 AM 50.0°F10.0°C 42.8°F6.0°C 75% 1.6 mph SW2.6 kmh SW 3.4 mph5.5 kmh 30.01 in1016.3 mb 0.00 in0.0 mm 0.00 in0.0 mm 0.00 in0.0 mm
07:45 AM 50.0°F10.0°C 42.8°F6.0°C 75% 1.2 mph SW1.9 kmh SW 2.9 mph4.7 kmh 30.01 in1016.3 mb 0.00 in0.0 mm 0.00 in0.0 mm 0.00 in0.0 mm
07:50 AM 50.4°F10.2°C 42.8°F6.0°C 75% 1.0 mph SW1.6 kmh SW 2.7 mph4.3 kmh 30.01 in1016.3 mb 0.00 in0.0 mm 0.00 in0.0 mm 0.00 in0.0 mm
07:55 AM 50.7°F10.4°C 42.8°F6.0°C 74% 1.1 mph SW1.8 kmh SW 2.5 mph4.0 kmh 30.01 in1016.3 mb 0.00 in0.0 mm 0.00 in0.0 mm 0.00 in0.0 mm
08:00 AM 51.3°F10.7°C 42.8°F6.0°C 74% 1.4 mph SW2.3 kmh SW 2.5 mph4.0 kmh 30.01 in1016.3 mb 0.00 in0.0 mm 0.00 in0.0 mm 0.00 in0.0 mm
08:05 AM 51.6°F10.9°C 44.6°F7.0°C 74% 1.0 mph SW1.6 kmh SW 2.5 mph4.0 kmh 30.01 in1016.3 mb 0.00 in0.0 mm 0.00 in0.0 mm 0.00 in0.0 mm
08:10 AM 52.0°F11.1°C 42.8°F6.0°C 73% 1.1 mph SW1.8 kmh SW 3.8 mph6.1 kmh 30.01 in1016.3 mb 0.00 in0.0 mm 0.00 in0.0 mm 0.00 in0.0 mm
08:15 AM 52.3°F11.3°C 44.6°F7.0°C 73% 1.1 mph SW1.8 kmh SW 3.8 mph6.1 kmh 30.01 in1016.3 mb 0.00 in0.0 mm 0.00 in0.0 mm 0.00 in0.0 mm
08:20 AM 52.5°F11.4°C 44.6°F7.0°C 72% 1.6 mph WSW2.6 kmh WSW 3.8 mph6.1 kmh 30.01 in1016.3 mb 0.00 in0.0 mm 0.00 in0.0 mm 0.00 in0.0 mm
08:25 AM 52.9°F11.6°C 44.6°F7.0°C 72% 2.2 mph SW3.5 kmh SW 3.4 mph5.5 kmh 30.01 in1016.3 mb 0.00 in0.0 mm 0.00 in0.0 mm 0.00 in0.0 mm
08:30 AM 53.4°F11.9°C 44.6°F7.0°C 71% 2.0 mph SW3.2 kmh SW 3.4 mph5.5 kmh 30.01 in1016.3 mb 0.00 in0.0 mm 0.00 in0.0 mm 0.00 in0.0 mm
08:35 AM 54.1°F12.3°C 46.4°F8.0°C 71% 1.1 mph WSW1.8 kmh WSW 3.1 mph5.0 kmh 30.01 in1016.3 mb 0.00 in0.0 mm 0.00 in0.0 mm 0.00 in0.0 mm
08:40 AM 55.0°F12.8°C 46.4°F8.0°C 71% 1.3 mph WSW2.1 kmh WSW 2.5 mph4.0 kmh 30.01 in1016.3 mb 0.00 in0.0 mm 0.00 in0.0 mm 0.00 in0.0 mm
08:45 AM 55.4°F13.0°C 46.4°F8.0°C 70% 1.6 mph WSW2.6 kmh WSW 2.7 mph4.3 kmh 30.01 in1016.3 mb 0.00 in0.0 mm 0.00 in0.0 mm 0.00 in0.0 mm
08:50 AM 55.8°F13.2°C 48.2°F9.0°C 71% 1.0 mph WNW1.6 kmh WNW 2.7 mph4.3 kmh 30.01 in1016.3 mb 0.00 in0.0 mm 0.00 in0.0 mm 0.00 in0.0 mm
08:55 AM 55.9°F13.3°C 46.4°F8.0°C 70% 0.9 mph WSW1.4 kmh WSW 2.2 mph3.5 kmh 30.01 in1016.3 mb 0.00 in0.0 mm 0.00 in0.0 mm 0.00 in0.0 mm
09:00 AM 56.3°F13.5°C 48.2°F9.0°C 70% 1.1 mph WSW1.8 kmh WSW 2.2 mph3.5 kmh 30.01 in1016.3 mb 0.00 in0.0 mm 0.00 in0.0 mm 0.00 in0.0 mm
09:05 AM 56.5°F13.6°C 48.2°F9.0°C 70% 1.2 mph W1.9 kmh W 2.2 mph3.5 kmh 30.01 in1016.3 mb 0.00 in0.0 mm 0.00 in0.0 mm 0.00 in0.0 mm
09:10 AM 56.7°F13.7°C 46.4°F8.0°C 69% 1.5 mph SW2.4 kmh SW 2.7 mph4.3 kmh 30.01 in1016.3 mb 0.00 in0.0 mm 0.00 in0.0 mm 0.00 in0.0 mm
09:15 AM 57.2°F14.0°C 48.2°F9.0°C 69% 1.8 mph SW2.9 kmh SW 2.7 mph4.3 kmh 30.01 in1016.3 mb 0.00 in0.0 mm 0.00 in0.0 mm 0.00 in0.0 mm
09:20 AM 57.4°F14.1°C 48.2°F9.0°C 69% 1.3 mph SW2.1 kmh SW 2.7 mph4.3 kmh 30.01 in1016.3 mb 0.00 in0.0 mm 0.00 in0.0 mm 0.00 in0.0 mm
09:25 AM 57.6°F14.2°C 48.2°F9.0°C 69% 1.4 mph SW2.3 kmh SW 2.7 mph4.3 kmh 30.01 in1016.3 mb 0.00 in0.0 mm 0.00 in0.0 mm 0.00 in0.0 mm
09:30 AM 58.1°F14.5°C 48.2°F9.0°C 69% 2.1 mph SW3.4 kmh SW 2.9 mph4.7 kmh 30.01 in1016.3 mb 0.00 in0.0 mm 0.00 in0.0 mm 0.00 in0.0 mm
09:35 AM 58.6°F14.8°C 48.2°F9.0°C 69% 1.8 mph WSW2.9 kmh WSW 2.9 mph4.7 kmh 30.01 in1016.3 mb 0.00 in0.0 mm 0.00 in0.0 mm 0.00 in0.0 mm
09:40 AM 59.9°F15.5°C 50.0°F10.0°C 69% 1.0 mph WSW1.6 kmh WSW 2.5 mph4.0 kmh 30.01 in1016.3 mb 0.00 in0.0 mm 0.00 in0.0 mm 0.00 in0.0 mm
09:45 AM 60.6°F15.9°C 50.0°F10.0°C 68% 0.5 mph SW0.8 kmh SW 1.6 mph2.6 kmh 30.01 in1016.3 mb 0.00 in0.0 mm 0.00 in0.0 mm 0.00 in0.0 mm
09:50 AM 62.2°F16.8°C 51.8°F11.0°C 68% 1.2 mph SW1.9 kmh SW 2.7 mph4.3 kmh 30.01 in1016.3 mb 0.00 in0.0 mm 0.00 in0.0 mm 0.00 in0.0 mm
09:55 AM 62.8°F17.1°C 51.8°F11.0°C 66% 1.6 mph SW2.6 kmh SW 2.7 mph4.3 kmh 30.01 in1016.3 mb 0.00 in0.0 mm 0.00 in0.0 mm 0.00 in0.0 mm
10:00 AM 63.1°F17.3°C 51.8°F11.0°C 65% 1.9 mph SW3.1 kmh SW 4.0 mph6.4 kmh 30.01 in1016.3 mb 0.00 in0.0 mm 0.00 in0.0 mm 0.00 in0.0 mm
10:05 AM 64.4°F18.0°C 53.6°F12.0°C 65% 2.4 mph WSW3.9 kmh WSW 4.0 mph6.4 kmh 30.01 in1016.3 mb 0.00 in0.0 mm 0.00 in0.0 mm 0.00 in0.0 mm
10:10 AM 66.2°F19.0°C 53.6°F12.0°C 63% 2.4 mph WSW3.9 kmh WSW 4.3 mph6.9 kmh 30.01 in1016.3 mb 0.00 in0.0 mm 0.00 in0.0 mm 0.00 in0.0 mm
10:15 AM 66.7°F19.3°C 53.6°F12.0°C 63% 2.1 mph SW3.4 kmh SW 4.3 mph6.9 kmh 30.01 in1016.3 mb 0.00 in0.0 mm 0.00 in0.0 mm 0.00 in0.0 mm
10:20 AM 67.1°F19.5°C 53.6°F12.0°C 62% 2.2 mph SW3.5 kmh SW 4.0 mph6.4 kmh 30.01 in1016.3 mb 0.00 in0.0 mm 0.00 in0.0 mm 0.00 in0.0 mm
10:25 AM 67.3°F19.6°C 53.6°F12.0°C 61% 2.4 mph SW3.9 kmh SW 4.0 mph6.4 kmh 30.01 in1016.3 mb 0.00 in0.0 mm 0.00 in0.0 mm 0.00 in0.0 mm
10:30 AM 68.4°F20.2°C 55.4°F13.0°C 61% 2.2 mph SW3.5 kmh SW 4.0 mph6.4 kmh 30.01 in1016.3 mb 0.00 in0.0 mm 0.00 in0.0 mm 0.00 in0.0 mm
10:35 AM 69.1°F20.6°C 55.4°F13.0°C 60% 1.7 mph SW2.7 kmh SW 2.7 mph4.3 kmh 30.01 in1016.3 mb 0.00 in0.0 mm 0.00 in0.0 mm 0.00 in0.0 mm
10:40 AM 69.8°F21.0°C 55.4°F13.0°C 59% 1.6 mph W2.6 kmh W 3.4 mph5.5 kmh 30.01 in1016.3 mb 0.00 in0.0 mm 0.00 in0.0 mm 0.00 in0.0 mm
10:45 AM 70.3°F21.3°C 55.4°F13.0°C 58% 1.7 mph WSW2.7 kmh WSW 3.4 mph5.5 kmh 30.01 in1016.3 mb 0.00 in0.0 mm 0.00 in0.0 mm 0.00 in0.0 mm
10:50 AM 71.1°F21.7°C 55.4°F13.0°C 56% 1.4 mph SW2.3 kmh SW 2.5 mph4.0 kmh 30.01 in1016.3 mb 0.00 in0.0 mm 0.00 in0.0 mm 0.00 in0.0 mm
10:55 AM 72.0°F22.2°C 55.4°F13.0°C 55% 2.1 mph SW3.4 kmh SW 4.0 mph6.4 kmh 30.01 in1016.3 mb 0.00 in0.0 mm 0.00 in0.0 mm 0.00 in0.0 mm
11:00 AM 71.6°F22.0°C 53.6°F12.0°C 53% 2.5 mph S4.0 kmh S 4.9 mph7.9 kmh 30.01 in1016.3 mb 0.00 in0.0 mm 0.00 in0.0 mm 0.00 in0.0 mm
11:05 AM 73.2°F22.9°C 55.4°F13.0°C 53% 2.2 mph S3.5 kmh S 4.9 mph7.9 kmh 30.01 in1016.3 mb 0.00 in0.0 mm 0.00 in0.0 mm 0.00 in0.0 mm
11:10 AM 73.2°F22.9°C 55.4°F13.0°C 53% 3.5 mph SW5.6 kmh SW 6.3 mph10.1 kmh 30.01 in1016.3 mb 0.00 in0.0 mm 0.00 in0.0 mm 0.00 in0.0 mm
11:15 AM 74.1°F23.4°C 55.4°F13.0°C 51% 3.5 mph WSW5.6 kmh WSW 6.3 mph10.1 kmh 30.01 in1016.3 mb 0.00 in0.0 mm 0.00 in0.0 mm 0.00 in0.0 mm
11:20 AM 75.6°F24.2°C 57.2°F14.0°C 51% 1.4 mph WSW2.3 kmh WSW 4.9 mph7.9 kmh 30.01 in1016.3 mb 0.00 in0.0 mm 0.00 in0.0 mm 0.00 in0.0 mm
11:25 AM 75.6°F24.2°C 55.4°F13.0°C 50% 2.1 mph WSW3.4 kmh WSW 6.3 mph10.1 kmh 29.98 in1015.2 mb 0.00 in0.0 mm 0.00 in0.0 mm 0.00 in0.0 mm
11:30 AM 75.7°F24.3°C 55.4°F13.0°C 50% 3.0 mph WSW4.8 kmh WSW 6.3 mph10.1 kmh 29.98 in1015.2 mb 0.00 in0.0 mm 0.00 in0.0 mm 0.00 in0.0 mm
11:35 AM 75.7°F24.3°C 55.4°F13.0°C 50% 3.0 mph WSW4.8 kmh WSW 5.6 mph9.0 kmh 29.98 in1015.2 mb 0.00 in0.0 mm 0.00 in0.0 mm 0.00 in0.0 mm
11:40 AM 72.5°F22.5°C 53.6°F12.0°C 51% 3.4 mph SW5.5 kmh SW 5.8 mph9.3 kmh 29.98 in1015.2 mb 0.00 in0.0 mm 0.00 in0.0 mm 0.00 in0.0 mm
11:45 AM 71.6°F22.0°C 53.6°F12.0°C 51% 3.1 mph SW5.0 kmh SW 5.8 mph9.3 kmh 29.98 in1015.2 mb 0.00 in0.0 mm 0.00 in0.0 mm 0.00 in0.0 mm
11:50 AM 70.3°F21.3°C 51.8°F11.0°C 52% 2.6 mph SW4.2 kmh SW 5.4 mph8.7 kmh 29.98 in1015.2 mb 0.00 in0.0 mm 0.00 in0.0 mm 0.00 in0.0 mm
11:55 AM 69.4°F20.8°C 51.8°F11.0°C 54% 3.2 mph WSW5.1 kmh WSW 5.8 mph9.3 kmh 29.98 in1015.2 mb 0.00 in0.0 mm 0.00 in0.0 mm 0.00 in0.0 mm
12:00 PM 68.7°F20.4°C 51.8°F11.0°C 53% 3.2 mph WSW5.1 kmh WSW 5.8 mph9.3 kmh 29.98 in1015.2 mb 0.00 in0.0 mm 0.00 in0.0 mm 0.00 in0.0 mm
12:05 PM 71.4°F21.9°C 53.6°F12.0°C 52% 3.1 mph SW5.0 kmh SW 4.9 mph7.9 kmh 29.98 in1015.2 mb 0.00 in0.0 mm 0.00 in0.0 mm 0.00 in0.0 mm
12:10 PM 72.7°F22.6°C 53.6°F12.0°C 51% 2.6 mph WSW4.2 kmh WSW 4.9 mph7.9 kmh 29.98 in1015.2 mb 0.00 in0.0 mm 0.00 in0.0 mm 0.00 in0.0 mm
12:15 PM 71.8°F22.1°C 53.6°F12.0°C 51% 2.1 mph W3.4 kmh W 4.9 mph7.9 kmh 29.98 in1015.2 mb 0.00 in0.0 mm 0.00 in0.0 mm 0.00 in0.0 mm
12:20 PM 70.3°F21.3°C 51.8°F11.0°C 51% 2.3 mph W3.7 kmh W 4.9 mph7.9 kmh 29.98 in1015.2 mb 0.00 in0.0 mm 0.00 in0.0 mm 0.00 in0.0 mm
12:25 PM 69.4°F20.8°C 51.8°F11.0°C 53% 2.3 mph WSW3.7 kmh WSW 4.5 mph7.2 kmh 29.98 in1015.2 mb 0.00 in0.0 mm 0.00 in0.0 mm 0.00 in0.0 mm
12:30 PM 69.1°F20.6°C 51.8°F11.0°C 52% 1.9 mph SSW3.1 kmh SSW 4.0 mph6.4 kmh 29.98 in1015.2 mb 0.00 in0.0 mm 0.00 in0.0 mm 0.00 in0.0 mm
12:35 PM 68.4°F20.2°C 51.8°F11.0°C 53% 1.7 mph SSW2.7 kmh SSW 3.6 mph5.8 kmh 29.98 in1015.2 mb 0.00 in0.0 mm 0.00 in0.0 mm 0.00 in0.0 mm
12:40 PM 68.0°F20.0°C 50.0°F10.0°C 53% 2.6 mph SW4.2 kmh SW 4.3 mph6.9 kmh 29.98 in1015.2 mb 0.00 in0.0 mm 0.00 in0.0 mm 0.00 in0.0 mm
12:45 PM 67.8°F19.9°C 50.0°F10.0°C 53% 2.6 mph SW4.2 kmh SW 4.3 mph6.9 kmh 29.98 in1015.2 mb 0.00 in0.0 mm 0.00 in0.0 mm 0.00 in0.0 mm
12:50 PM 67.8°F19.9°C 51.8°F11.0°C 54% 2.5 mph WSW4.0 kmh WSW 5.4 mph8.7 kmh 29.98 in1015.2 mb 0.00 in0.0 mm 0.00 in0.0 mm 0.00 in0.0 mm
12:55 PM 68.0°F20.0°C 50.0°F10.0°C 53% 2.9 mph WSW4.7 kmh WSW 5.4 mph8.7 kmh 29.98 in1015.2 mb 0.00 in0.0 mm 0.00 in0.0 mm 0.00 in0.0 mm
01:00 PM 68.0°F20.0°C 50.0°F10.0°C 52% 3.0 mph W4.8 kmh W 4.9 mph7.9 kmh 29.98 in1015.2 mb 0.00 in0.0 mm 0.00 in0.0 mm 0.00 in0.0 mm
01:05 PM 68.7°F20.4°C 50.0°F10.0°C 52% 3.0 mph W4.8 kmh W 4.9 mph7.9 kmh 29.98 in1015.2 mb 0.00 in0.0 mm 0.00 in0.0 mm 0.00 in0.0 mm
01:10 PM 68.9°F20.5°C 51.8°F11.0°C 52% 2.6 mph W4.2 kmh W 4.9 mph7.9 kmh 29.98 in1015.2 mb 0.00 in0.0 mm 0.00 in0.0 mm 0.00 in0.0 mm
01:15 PM 69.1°F20.6°C 51.8°F11.0°C 52% 2.2 mph W3.5 kmh W 4.9 mph7.9 kmh 29.98 in1015.2 mb 0.00 in0.0 mm 0.00 in0.0 mm 0.00 in0.0 mm
01:20 PM 68.7°F20.4°C 50.0°F10.0°C 51% 2.7 mph WNW4.3 kmh WNW 6.3 mph10.1 kmh 29.98 in1015.2 mb 0.00 in0.0 mm 0.00 in0.0 mm 0.00 in0.0 mm
01:25 PM 67.3°F19.6°C 48.2°F9.0°C 51% 3.8 mph NW6.1 kmh NW 6.3 mph10.1 kmh 29.98 in1015.2 mb 0.00 in0.0 mm 0.00 in0.0 mm 0.00 in0.0 mm
01:30 PM 66.6°F19.2°C 50.0°F10.0°C 53% 4.3 mph NW6.9 kmh NW 6.3 mph10.1 kmh 29.98 in1015.2 mb 0.00 in0.0 mm 0.00 in0.0 mm 0.00 in0.0 mm
01:35 PM 65.8°F18.8°C 48.2°F9.0°C 54% 3.5 mph N5.6 kmh N 6.0 mph9.7 kmh 29.98 in1015.2 mb 0.00 in0.0 mm 0.00 in0.0 mm 0.00 in0.0 mm
01:40 PM 66.0°F18.9°C 50.0°F10.0°C 55% 2.6 mph NNW4.2 kmh NNW 4.7 mph7.6 kmh 29.98 in1015.2 mb 0.00 in0.0 mm 0.00 in0.0 mm 0.00 in0.0 mm
01:45 PM 65.5°F18.6°C 48.2°F9.0°C 55% 2.6 mph NW4.2 kmh NW 5.6 mph9.0 kmh 29.98 in1015.2 mb 0.00 in0.0 mm 0.00 in0.0 mm 0.00 in0.0 mm
01:50 PM 64.9°F18.3°C 48.2°F9.0°C 55% 4.2 mph NNE6.8 kmh NNE 8.7 mph14.0 kmh 29.98 in1015.2 mb 0.00 in0.0 mm 0.00 in0.0 mm 0.00 in0.0 mm
01:55 PM 64.8°F18.2°C 48.2°F9.0°C 55% 4.9 mph NE7.9 kmh NE 8.7 mph14.0 kmh 29.98 in1015.2 mb 0.00 in0.0 mm 0.00 in0.0 mm 0.00 in0.0 mm
02:00 PM 64.6°F18.1°C 48.2°F9.0°C 55% 4.4 mph NNE7.1 kmh NNE 6.5 mph10.5 kmh 29.98 in1015.2 mb 0.00 in0.0 mm 0.00 in0.0 mm 0.00 in0.0 mm
02:05 PM 64.2°F17.9°C 48.2°F9.0°C 56% 3.9 mph NE6.3 kmh NE 6.5 mph10.5 kmh 29.98 in1015.2 mb 0.00 in0.0 mm 0.00 in0.0 mm 0.00 in0.0 mm
02:10 PM 64.6°F18.1°C 48.2°F9.0°C 56% 3.6 mph NE5.8 kmh NE 5.8 mph9.3 kmh 29.98 in1015.2 mb 0.00 in0.0 mm 0.00 in0.0 mm 0.00 in0.0 mm
02:15 PM 64.4°F18.0°C 48.2°F9.0°C 57% 3.5 mph NNE5.6 kmh NNE 5.6 mph9.0 kmh 29.98 in1015.2 mb 0.00 in0.0 mm 0.00 in0.0 mm 0.00 in0.0 mm
02:20 PM 63.7°F17.6°C 48.2°F9.0°C 56% 3.5 mph N5.6 kmh N 6.0 mph9.7 kmh 29.98 in1015.2 mb 0.00 in0.0 mm 0.00 in0.0 mm 0.00 in0.0 mm
02:25 PM 63.3°F17.4°C 48.2°F9.0°C 57% 3.6 mph NNE5.8 kmh NNE 6.0 mph9.7 kmh 29.98 in1015.2 mb 0.00 in0.0 mm 0.00 in0.0 mm 0.00 in0.0 mm
02:30 PM 63.1°F17.3°C 48.2°F9.0°C 57% 3.0 mph NNE4.8 kmh NNE 4.9 mph7.9 kmh 29.98 in1015.2 mb 0.00 in0.0 mm 0.00 in0.0 mm 0.00 in0.0 mm
02:35 PM 63.0°F17.2°C 48.2°F9.0°C 57% 2.4 mph NNE3.9 kmh NNE 4.9 mph7.9 kmh 29.98 in1015.2 mb 0.00 in0.0 mm 0.00 in0.0 mm 0.00 in0.0 mm
02:40 PM 63.1°F17.3°C 48.2°F9.0°C 57% 2.6 mph NNE4.2 kmh NNE 4.7 mph7.6 kmh 29.98 in1015.2 mb 0.00 in0.0 mm 0.00 in0.0 mm 0.00 in0.0 mm
02:45 PM 63.0°F17.2°C 48.2°F9.0°C 57% 2.4 mph NNE3.9 kmh NNE 4.7 mph7.6 kmh 29.98 in1015.2 mb 0.00 in0.0 mm 0.00 in0.0 mm 0.00 in0.0 mm
02:50 PM 62.8°F17.1°C 48.2°F9.0°C 57% 1.8 mph NE2.9 kmh NE 3.6 mph5.8 kmh 29.98 in1015.2 mb 0.00 in0.0 mm 0.00 in0.0 mm 0.00 in0.0 mm
02:55 PM 62.8°F17.1°C 48.2°F9.0°C 58% 2.2 mph NE3.5 kmh NE 4.7 mph7.6 kmh 29.98 in1015.2 mb 0.00 in0.0 mm 0.00 in0.0 mm 0.00 in0.0 mm
03:00 PM 62.2°F16.8°C 48.2°F9.0°C 59% 2.6 mph NE4.2 kmh NE 4.7 mph7.6 kmh 29.98 in1015.2 mb 0.00 in0.0 mm 0.00 in0.0 mm 0.00 in0.0 mm
03:05 PM 61.7°F16.5°C 48.2°F9.0°C 59% 3.0 mph NNE4.8 kmh NNE 5.8 mph9.3 kmh 29.98 in1015.2 mb 0.00 in0.0 mm 0.00 in0.0 mm 0.00 in0.0 mm
03:10 PM 61.9°F16.6°C 48.2°F9.0°C 59% 2.8 mph NE4.5 kmh NE 5.8 mph9.3 kmh 29.98 in1015.2 mb 0.00 in0.0 mm 0.00 in0.0 mm 0.00 in0.0 mm
03:15 PM 61.7°F16.5°C 48.2°F9.0°C 60% 1.9 mph NNE3.1 kmh NNE 3.1 mph5.0 kmh 29.98 in1015.2 mb 0.00 in0.0 mm 0.00 in0.0 mm 0.00 in0.0 mm
03:20 PM 61.7°F16.5°C 48.2°F9.0°C 60% 1.5 mph N2.4 kmh N 3.1 mph5.0 kmh 29.98 in1015.2 mb 0.00 in0.0 mm 0.00 in0.0 mm 0.00 in0.0 mm
03:25 PM 61.7°F16.5°C 48.2°F9.0°C 60% 1.1 mph N1.8 kmh N 2.9 mph4.7 kmh 29.98 in1015.2 mb 0.00 in0.0 mm 0.00 in0.0 mm 0.00 in0.0 mm
03:30 PM 61.5°F16.4°C 48.2°F9.0°C 60% 1.1 mph N1.8 kmh N 2.9 mph4.7 kmh 29.98 in1015.2 mb 0.00 in0.0 mm 0.00 in0.0 mm 0.00 in0.0 mm
03:35 PM 61.7°F16.5°C 48.2°F9.0°C 60% 0.9 mph NNW1.4 kmh NNW 2.2 mph3.5 kmh 29.98 in1015.2 mb 0.00 in0.0 mm 0.00 in0.0 mm 0.00 in0.0 mm
03:40 PM 61.3°F16.3°C 48.2°F9.0°C 60% 1.2 mph NNW1.9 kmh NNW 2.9 mph4.7 kmh 29.98 in1015.2 mb 0.00 in0.0 mm 0.00 in0.0 mm 0.00 in0.0 mm
03:45 PM 61.2°F16.2°C 48.2°F9.0°C 60% 1.7 mph NNW2.7 kmh NNW 2.9 mph4.7 kmh 29.98 in1015.2 mb 0.00 in0.0 mm 0.00 in0.0 mm 0.00 in0.0 mm
03:50 PM 61.0°F16.1°C 48.2°F9.0°C 60% 1.6 mph NW2.6 kmh NW 2.7 mph4.3 kmh 29.98 in1015.2 mb 0.00 in0.0 mm 0.00 in0.0 mm 0.00 in0.0 mm
03:55 PM 60.8°F16.0°C 48.2°F9.0°C 60% 1.1 mph NNW1.8 kmh NNW 2.7 mph4.3 kmh 29.98 in1015.2 mb 0.00 in0.0 mm 0.00 in0.0 mm 0.00 in0.0 mm
04:00 PM 60.4°F15.8°C 46.4°F8.0°C 60% 1.3 mph N2.1 kmh N 2.0 mph3.2 kmh 29.98 in1015.2 mb 0.00 in0.0 mm 0.00 in0.0 mm 0.00 in0.0 mm
04:05 PM 60.3°F15.7°C 46.4°F8.0°C 60% 1.8 mph N2.9 kmh N 2.9 mph4.7 kmh 29.98 in1015.2 mb 0.00 in0.0 mm 0.00 in0.0 mm 0.00 in0.0 mm
04:10 PM 60.1°F15.6°C 46.4°F8.0°C 61% 1.7 mph NNE2.7 kmh NNE 2.9 mph4.7 kmh 29.98 in1015.2 mb 0.00 in0.0 mm 0.00 in0.0 mm 0.00 in0.0 mm
04:15 PM 60.3°F15.7°C 48.2°F9.0°C 62% 0.9 mph N1.4 kmh N 2.2 mph3.5 kmh 29.98 in1015.2 mb 0.00 in0.0 mm 0.00 in0.0 mm 0.00 in0.0 mm
04:20 PM 60.6°F15.9°C 48.2°F9.0°C 62% 1.0 mph N1.6 kmh N 2.0 mph3.2 kmh 29.98 in1015.2 mb 0.00 in0.0 mm 0.00 in0.0 mm 0.00 in0.0 mm
04:25 PM 60.8°F16.0°C 48.2°F9.0°C 63% 1.4 mph N2.3 kmh N 3.1 mph5.0 kmh 29.98 in1015.2 mb 0.00 in0.0 mm 0.00 in0.0 mm 0.00 in0.0 mm
04:30 PM 60.4°F15.8°C 48.2°F9.0°C 62% 1.9 mph NNW3.1 kmh NNW 5.8 mph9.3 kmh 29.98 in1015.2 mb 0.00 in0.0 mm 0.00 in0.0 mm 0.00 in0.0 mm
04:35 PM 60.4°F15.8°C 48.2°F9.0°C 62% 2.7 mph N4.3 kmh N 5.8 mph9.3 kmh 29.98 in1015.2 mb 0.00 in0.0 mm 0.00 in0.0 mm 0.00 in0.0 mm
04:40 PM 60.3°F15.7°C 48.2°F9.0°C 62% 2.8 mph NNE4.5 kmh NNE 3.6 mph5.8 kmh 29.95 in1014.2 mb 0.00 in0.0 mm 0.00 in0.0 mm 0.00 in0.0 mm
04:45 PM 60.3°F15.7°C 48.2°F9.0°C 62% 2.9 mph N4.7 kmh N 4.7 mph7.6 kmh 29.95 in1014.2 mb 0.00 in0.0 mm 0.00 in0.0 mm 0.00 in0.0 mm
04:50 PM 60.3°F15.7°C 48.2°F9.0°C 62% 3.2 mph N5.1 kmh N 5.4 mph8.7 kmh 29.95 in1014.2 mb 0.00 in0.0 mm 0.00 in0.0 mm 0.00 in0.0 mm
04:55 PM 60.3°F15.7°C 48.2°F9.0°C 62% 2.6 mph N4.2 kmh N 5.4 mph8.7 kmh 29.95 in1014.2 mb 0.00 in0.0 mm 0.00 in0.0 mm 0.00 in0.0 mm
05:00 PM 60.3°F15.7°C 48.2°F9.0°C 62% 1.8 mph N2.9 kmh N 4.9 mph7.9 kmh 29.95 in1014.2 mb 0.00 in0.0 mm 0.00 in0.0 mm 0.00 in0.0 mm
05:05 PM 60.1°F15.6°C 46.4°F8.0°C 61% 1.5 mph NW2.4 kmh NW 4.0 mph6.4 kmh 29.95 in1014.2 mb 0.00 in0.0 mm 0.00 in0.0 mm 0.00 in0.0 mm
05:10 PM 59.9°F15.5°C 48.2°F9.0°C 62% 1.6 mph NW2.6 kmh NW 4.0 mph6.4 kmh 29.95 in1014.2 mb 0.00 in0.0 mm 0.00 in0.0 mm 0.00 in0.0 mm
05:15 PM 59.9°F15.5°C 46.4°F8.0°C 61% 1.5 mph NW2.4 kmh NW 3.1 mph5.0 kmh 29.95 in1014.2 mb 0.00 in0.0 mm 0.00 in0.0 mm 0.00 in0.0 mm
05:20 PM 59.9°F15.5°C 46.4°F8.0°C 61% 1.4 mph NNW2.3 kmh NNW 3.1 mph5.0 kmh 29.95 in1014.2 mb 0.00 in0.0 mm 0.00 in0.0 mm 0.00 in0.0 mm
05:25 PM 59.7°F15.4°C 46.4°F8.0°C 61% 0.9 mph N1.4 kmh N 2.2 mph3.5 kmh 29.95 in1014.2 mb 0.00 in0.0 mm 0.00 in0.0 mm 0.00 in0.0 mm
05:30 PM 59.9°F15.5°C 46.4°F8.0°C 61% 0.9 mph NNW1.4 kmh NNW 2.9 mph4.7 kmh 29.95 in1014.2 mb 0.00 in0.0 mm 0.00 in0.0 mm 0.00 in0.0 mm
05:35 PM 59.9°F15.5°C 46.4°F8.0°C 61% 1.4 mph NW2.3 kmh NW 2.9 mph4.7 kmh 29.95 in1014.2 mb 0.00 in0.0 mm 0.00 in0.0 mm 0.00 in0.0 mm
05:40 PM 60.1°F15.6°C 46.4°F8.0°C 61% 1.6 mph NNW2.6 kmh NNW 2.7 mph4.3 kmh 29.95 in1014.2 mb 0.00 in0.0 mm 0.00 in0.0 mm 0.00 in0.0 mm
05:45 PM 59.9°F15.5°C 46.4°F8.0°C 61% 1.1 mph N1.8 kmh N 2.0 mph3.2 kmh 29.95 in1014.2 mb 0.00 in0.0 mm 0.00 in0.0 mm 0.00 in0.0 mm
05:50 PM 60.1°F15.6°C 46.4°F8.0°C 61% 1.1 mph NNW1.8 kmh NNW 2.0 mph3.2 kmh 29.95 in1014.2 mb 0.00 in0.0 mm 0.00 in0.0 mm 0.00 in0.0 mm
05:55 PM 60.1°F15.6°C 46.4°F8.0°C 61% 0.9 mph NW1.4 kmh NW 2.0 mph3.2 kmh 29.95 in1014.2 mb 0.00 in0.0 mm 0.00 in0.0 mm 0.00 in0.0 mm
06:00 PM 59.9°F15.5°C 46.4°F8.0°C 61% 0.9 mph NNW1.4 kmh NNW 2.7 mph4.3 kmh 29.95 in1014.2 mb 0.00 in0.0 mm 0.00 in0.0 mm 0.00 in0.0 mm
06:05 PM 59.7°F15.4°C 46.4°F8.0°C 62% 0.9 mph N1.4 kmh N 2.7 mph4.3 kmh 29.95 in1014.2 mb 0.00 in0.0 mm 0.00 in0.0 mm 0.00 in0.0 mm
06:10 PM 59.5°F15.3°C 46.4°F8.0°C 62% 1.0 mph NW1.6 kmh NW 2.9 mph4.7 kmh 29.95 in1014.2 mb 0.00 in0.0 mm 0.00 in0.0 mm 0.00 in0.0 mm
06:15 PM 59.5°F15.3°C 46.4°F8.0°C 62% 1.2 mph W1.9 kmh W 2.9 mph4.7 kmh 29.95 in1014.2 mb 0.00 in0.0 mm 0.00 in0.0 mm 0.00 in0.0 mm
06:20 PM 59.4°F15.2°C 46.4°F8.0°C 61% 0.9 mph WSW1.4 kmh WSW 2.5 mph4.0 kmh 29.95 in1014.2 mb 0.00 in0.0 mm 0.00 in0.0 mm 0.00 in0.0 mm
06:25 PM 59.4°F15.2°C 46.4°F8.0°C 61% 1.2 mph WSW1.9 kmh WSW 2.5 mph4.0 kmh 29.95 in1014.2 mb 0.00 in0.0 mm 0.00 in0.0 mm 0.00 in0.0 mm
06:30 PM 59.0°F15.0°C 46.4°F8.0°C 61% 1.7 mph WSW2.7 kmh WSW 3.6 mph5.8 kmh 29.95 in1014.2 mb 0.00 in0.0 mm 0.00 in0.0 mm 0.00 in0.0 mm
06:35 PM 58.8°F14.9°C 46.4°F8.0°C 62% 1.7 mph WSW2.7 kmh WSW 3.6 mph5.8 kmh 29.95 in1014.2 mb 0.00 in0.0 mm 0.00 in0.0 mm 0.00 in0.0 mm
06:40 PM 58.6°F14.8°C 46.4°F8.0°C 62% 0.9 mph WSW1.4 kmh WSW 3.6 mph5.8 kmh 29.95 in1014.2 mb 0.00 in0.0 mm 0.00 in0.0 mm 0.00 in0.0 mm
06:45 PM 58.6°F14.8°C 46.4°F8.0°C 62% 0.5 mph W0.8 kmh W 1.6 mph2.6 kmh 29.95 in1014.2 mb 0.00 in0.0 mm 0.00 in0.0 mm 0.00 in0.0 mm
06:50 PM 58.5°F14.7°C 46.4°F8.0°C 62% 0.4 mph W0.6 kmh W 1.1 mph1.8 kmh 29.95 in1014.2 mb 0.00 in0.0 mm 0.00 in0.0 mm 0.00 in0.0 mm
06:55 PM 58.3°F14.6°C 46.4°F8.0°C 63% 0.2 mph W0.3 kmh W 0.9 mph1.4 kmh 29.95 in1014.2 mb 0.00 in0.0 mm 0.00 in0.0 mm 0.00 in0.0 mm
07:00 PM 58.1°F14.5°C 46.4°F8.0°C 63% 0.1 mph W0.2 kmh W 0.9 mph1.4 kmh 29.95 in1014.2 mb 0.00 in0.0 mm 0.00 in0.0 mm 0.00 in0.0 mm
07:05 PM 57.9°F14.4°C 46.4°F8.0°C 63% 0.2 mph W0.3 kmh W 0.9 mph1.4 kmh 29.95 in1014.2 mb 0.00 in0.0 mm 0.00 in0.0 mm 0.00 in0.0 mm
07:10 PM 57.9°F14.4°C 46.4°F8.0°C 63% 0.8 mph W1.3 kmh W 2.0 mph3.2 kmh 29.95 in1014.2 mb 0.00 in0.0 mm 0.00 in0.0 mm 0.00 in0.0 mm
07:15 PM 57.6°F14.2°C 46.4°F8.0°C 64% 0.7 mph W1.1 kmh W 2.0 mph3.2 kmh 29.95 in1014.2 mb 0.00 in0.0 mm 0.00 in0.0 mm 0.00 in0.0 mm
07:20 PM 57.6°F14.2°C 46.4°F8.0°C 64% 0.3 mph W0.5 kmh W 2.0 mph3.2 kmh 29.95 in1014.2 mb 0.00 in0.0 mm 0.00 in0.0 mm 0.00 in0.0 mm
07:25 PM 57.4°F14.1°C 46.4°F8.0°C 64% 0.1 mph W0.2 kmh W 1.6 mph2.6 kmh 29.95 in1014.2 mb 0.00 in0.0 mm 0.00 in0.0 mm 0.00 in0.0 mm
07:30 PM 57.2°F14.0°C 46.4°F8.0°C 64% 0.3 mph W0.5 kmh W 1.6 mph2.6 kmh 29.95 in1014.2 mb 0.00 in0.0 mm 0.00 in0.0 mm 0.00 in0.0 mm
07:35 PM 57.0°F13.9°C 46.4°F8.0°C 64% 0.4 mph W0.6 kmh W 1.6 mph2.6 kmh 29.95 in1014.2 mb 0.00 in0.0 mm 0.00 in0.0 mm 0.00 in0.0 mm
07:40 PM 56.7°F13.7°C 46.4°F8.0°C 65% 0.2 mph W0.3 kmh W 0.9 mph1.4 kmh 29.95 in1014.2 mb 0.00 in0.0 mm 0.00 in0.0 mm 0.00 in0.0 mm
07:45 PM 56.5°F13.6°C 46.4°F8.0°C 65% 0.1 mph W0.2 kmh W 0.9 mph1.4 kmh 29.95 in1014.2 mb 0.00 in0.0 mm 0.00 in0.0 mm 0.00 in0.0 mm
07:50 PM 56.3°F13.5°C 46.4°F8.0°C 65% Calm Calm -- 29.95 in1014.2 mb 0.00 in0.0 mm 0.00 in0.0 mm 0.00 in0.0 mm
07:55 PM 55.8°F13.2°C 44.6°F7.0°C 65% Calm Calm -- 29.95 in1014.2 mb 0.00 in0.0 mm 0.00 in0.0 mm 0.00 in0.0 mm
08:00 PM 55.4°F13.0°C 44.6°F7.0°C 66% 0.1 mph W0.2 kmh W 1.1 mph1.8 kmh 29.95 in1014.2 mb 0.00 in0.0 mm 0.00 in0.0 mm 0.00 in0.0 mm
08:05 PM 55.0°F12.8°C 44.6°F7.0°C 66% 0.2 mph W0.3 kmh W 1.1 mph1.8 kmh 29.95 in1014.2 mb 0.00 in0.0 mm 0.00 in0.0 mm 0.00 in0.0 mm
08:10 PM 54.7°F12.6°C 44.6°F7.0°C 66% 0.2 mph W0.3 kmh W 1.1 mph1.8 kmh 29.95 in1014.2 mb 0.00 in0.0 mm 0.00 in0.0 mm 0.00 in0.0 mm
08:15 PM 54.3°F12.4°C 44.6°F7.0°C 67% 0.5 mph N0.8 kmh N 2.0 mph3.2 kmh 29.95 in1014.2 mb 0.00 in0.0 mm 0.00 in0.0 mm 0.00 in0.0 mm
08:20 PM 54.1°F12.3°C 44.6°F7.0°C 67% 2.1 mph NNE3.4 kmh NNE 4.0 mph6.4 kmh 29.95 in1014.2 mb 0.00 in0.0 mm 0.00 in0.0 mm 0.00 in0.0 mm
08:25 PM 54.0°F12.2°C 42.8°F6.0°C 67% 2.2 mph NNE3.5 kmh NNE 4.0 mph6.4 kmh 29.95 in1014.2 mb 0.00 in0.0 mm 0.00 in0.0 mm 0.00 in0.0 mm
08:30 PM 53.8°F12.1°C 42.8°F6.0°C 67% 1.6 mph NE2.6 kmh NE 3.4 mph5.5 kmh 29.95 in1014.2 mb 0.00 in0.0 mm 0.00 in0.0 mm 0.00 in0.0 mm
08:35 PM 53.4°F11.9°C 42.8°F6.0°C 68% 1.6 mph NE2.6 kmh NE 3.1 mph5.0 kmh 29.95 in1014.2 mb 0.00 in0.0 mm 0.00 in0.0 mm 0.00 in0.0 mm
08:40 PM 53.4°F11.9°C 42.8°F6.0°C 68% 1.6 mph NE2.6 kmh NE 2.9 mph4.7 kmh 29.95 in1014.2 mb 0.00 in0.0 mm 0.00 in0.0 mm 0.00 in0.0 mm
08:45 PM 53.1°F11.7°C 42.8°F6.0°C 68% 1.8 mph NNE2.9 kmh NNE 2.7 mph4.3 kmh 29.95 in1014.2 mb 0.00 in0.0 mm 0.00 in0.0 mm 0.00 in0.0 mm
08:50 PM 53.1°F11.7°C 42.8°F6.0°C 68% 1.6 mph NNE2.6 kmh NNE 2.5 mph4.0 kmh 29.95 in1014.2 mb 0.00 in0.0 mm 0.00 in0.0 mm 0.00 in0.0 mm
08:55 PM 52.7°F11.5°C 42.8°F6.0°C 68% 1.9 mph NE3.1 kmh NE 2.7 mph4.3 kmh 29.95 in1014.2 mb 0.00 in0.0 mm 0.00 in0.0 mm 0.00 in0.0 mm
09:00 PM 52.7°F11.5°C 42.8°F6.0°C 69% 2.2 mph NE3.5 kmh NE 3.1 mph5.0 kmh 29.95 in1014.2 mb 0.00 in0.0 mm 0.00 in0.0 mm 0.00 in0.0 mm
09:05 PM 52.9°F11.6°C 42.8°F6.0°C 69% 1.4 mph NE2.3 kmh NE 3.1 mph5.0 kmh 29.95 in1014.2 mb 0.00 in0.0 mm 0.00 in0.0 mm 0.00 in0.0 mm
09:10 PM 52.9°F11.6°C 42.8°F6.0°C 69% 0.7 mph NE1.1 kmh NE 2.0 mph3.2 kmh 29.95 in1014.2 mb 0.00 in0.0 mm 0.00 in0.0 mm 0.00 in0.0 mm
09:15 PM 52.7°F11.5°C 42.8°F6.0°C 69% 1.0 mph NE1.6 kmh NE 2.7 mph4.3 kmh 29.95 in1014.2 mb 0.00 in0.0 mm 0.00 in0.0 mm 0.00 in0.0 mm
09:20 PM 52.7°F11.5°C 42.8°F6.0°C 69% 1.4 mph NE2.3 kmh NE 2.7 mph4.3 kmh 29.95 in1014.2 mb 0.00 in0.0 mm 0.00 in0.0 mm 0.00 in0.0 mm
09:25 PM 52.5°F11.4°C 42.8°F6.0°C 69% 0.7 mph NNE1.1 kmh NNE 1.6 mph2.6 kmh 29.92 in1013.2 mb 0.00 in0.0 mm 0.00 in0.0 mm 0.00 in0.0 mm
09:30 PM 52.3°F11.3°C 42.8°F6.0°C 69% Calm Calm -- 29.92 in1013.2 mb 0.00 in0.0 mm 0.00 in0.0 mm 0.00 in0.0 mm
09:35 PM 52.3°F11.3°C 42.8°F6.0°C 70% 0.1 mph NNE0.2 kmh NNE 0.9 mph1.4 kmh 29.92 in1013.2 mb 0.00 in0.0 mm 0.00 in0.0 mm 0.00 in0.0 mm
09:40 PM 52.2°F11.2°C 42.8°F6.0°C 69% 0.1 mph NNE0.2 kmh NNE 0.9 mph1.4 kmh 29.92 in1013.2 mb 0.00 in0.0 mm 0.00 in0.0 mm 0.00 in0.0 mm
09:45 PM 51.8°F11.0°C 42.8°F6.0°C 70% Calm Calm 0.9 mph1.4 kmh 29.92 in1013.2 mb 0.00 in0.0 mm 0.00 in0.0 mm 0.00 in0.0 mm
09:50 PM 51.8°F11.0°C 42.8°F6.0°C 69% Calm Calm -- 29.92 in1013.2 mb 0.00 in0.0 mm 0.00 in0.0 mm 0.00 in0.0 mm
09:55 PM 51.6°F10.9°C 42.8°F6.0°C 70% 0.3 mph N0.5 kmh N 1.1 mph1.8 kmh 29.92 in1013.2 mb 0.00 in0.0 mm 0.00 in0.0 mm 0.00 in0.0 mm
10:00 PM 51.4°F10.8°C 42.8°F6.0°C 70% 0.4 mph N0.6 kmh N 1.1 mph1.8 kmh 29.92 in1013.2 mb 0.00 in0.0 mm 0.00 in0.0 mm 0.00 in0.0 mm
10:05 PM 51.4°F10.8°C 42.8°F6.0°C 70% 0.1 mph NW0.2 kmh NW 1.1 mph1.8 kmh 29.92 in1013.2 mb 0.00 in0.0 mm 0.00 in0.0 mm 0.00 in0.0 mm
10:10 PM 51.4°F10.8°C 42.8°F6.0°C 70% Calm Calm -- 29.92 in1013.2 mb 0.00 in0.0 mm 0.00 in0.0 mm 0.00 in0.0 mm
10:15 PM 51.4°F10.8°C 42.8°F6.0°C 70% Calm Calm -- 29.92 in1013.2 mb 0.00 in0.0 mm 0.00 in0.0 mm 0.00 in0.0 mm
10:20 PM 51.6°F10.9°C 42.8°F6.0°C 70% 0.1 mph N0.2 kmh N 1.1 mph1.8 kmh 29.92 in1013.2 mb 0.00 in0.0 mm 0.00 in0.0 mm 0.00 in0.0 mm
10:25 PM 51.6°F10.9°C 42.8°F6.0°C 70% 0.2 mph N0.3 kmh N 1.1 mph1.8 kmh 29.92 in1013.2 mb 0.00 in0.0 mm 0.00 in0.0 mm 0.00 in0.0 mm
10:30 PM 51.4°F10.8°C 42.8°F6.0°C 70% 0.3 mph N0.5 kmh N 1.3 mph2.1 kmh 29.92 in1013.2 mb 0.00 in0.0 mm 0.00 in0.0 mm 0.00 in0.0 mm
10:35 PM 51.4°F10.8°C 42.8°F6.0°C 70% 0.4 mph N0.6 kmh N 1.3 mph2.1 kmh 29.92 in1013.2 mb 0.00 in0.0 mm 0.00 in0.0 mm 0.00 in0.0 mm
10:40 PM 51.4°F10.8°C 42.8°F6.0°C 70% 0.2 mph N0.3 kmh N 1.3 mph2.1 kmh 29.92 in1013.2 mb 0.00 in0.0 mm 0.00 in0.0 mm 0.00 in0.0 mm
10:45 PM 51.1°F10.6°C 42.8°F6.0°C 71% Calm Calm -- 29.92 in1013.2 mb 0.00 in0.0 mm 0.00 in0.0 mm 0.00 in0.0 mm
10:50 PM 51.1°F10.6°C 42.8°F6.0°C 71% Calm Calm -- 29.92 in1013.2 mb 0.00 in0.0 mm 0.00 in0.0 mm 0.00 in0.0 mm
10:55 PM 50.9°F10.5°C 42.8°F6.0°C 71% Calm Calm -- 29.92 in1013.2 mb 0.00 in0.0 mm 0.00 in0.0 mm 0.00 in0.0 mm
11:00 PM 50.7°F10.4°C 42.8°F6.0°C 71% 0.1 mph N0.2 kmh N 1.1 mph1.8 kmh 29.92 in1013.2 mb 0.00 in0.0 mm 0.00 in0.0 mm 0.00 in0.0 mm
11:05 PM 50.7°F10.4°C 42.8°F6.0°C 71% 0.3 mph N0.5 kmh N 1.1 mph1.8 kmh 29.92 in1013.2 mb 0.00 in0.0 mm 0.00 in0.0 mm 0.00 in0.0 mm
11:10 PM 50.7°F10.4°C 42.8°F6.0°C 71% 0.2 mph N0.3 kmh N 0.9 mph1.4 kmh 29.92 in1013.2 mb 0.00 in0.0 mm 0.00 in0.0 mm 0.00 in0.0 mm
11:15 PM 50.7°F10.4°C 42.8°F6.0°C 71% Calm Calm -- 29.92 in1013.2 mb 0.00 in0.0 mm 0.00 in0.0 mm 0.00 in0.0 mm
11:20 PM 50.5°F10.3°C 42.8°F6.0°C 71% 0.2 mph N0.3 kmh N 1.1 mph1.8 kmh 29.92 in1013.2 mb 0.00 in0.0 mm 0.00 in0.0 mm 0.00 in0.0 mm
11:25 PM 50.5°F10.3°C 42.8°F6.0°C 72% 0.3 mph N0.5 kmh N 1.1 mph1.8 kmh 29.89 in1012.2 mb 0.00 in0.0 mm 0.00 in0.0 mm 0.00 in0.0 mm
11:30 PM 50.5°F10.3°C 42.8°F6.0°C 72% 0.1 mph NNE0.2 kmh NNE 1.1 mph1.8 kmh 29.89 in1012.2 mb 0.00 in0.0 mm 0.00 in0.0 mm 0.00 in0.0 mm
11:35 PM 50.5°F10.3°C 42.8°F6.0°C 72% Calm Calm -- 29.89 in1012.2 mb 0.00 in0.0 mm 0.00 in0.0 mm 0.00 in0.0 mm
11:40 PM 50.5°F10.3°C 42.8°F6.0°C 72% Calm Calm -- 29.92 in1013.2 mb 0.00 in0.0 mm 0.00 in0.0 mm 0.00 in0.0 mm
11:45 PM 50.4°F10.2°C 42.8°F6.0°C 72% Calm Calm -- 29.92 in1013.2 mb 0.00 in0.0 mm 0.00 in0.0 mm 0.00 in0.0 mm
11:50 PM 50.4°F10.2°C 42.8°F6.0°C 72% Calm Calm -- 29.92 in1013.2 mb 0.00 in0.0 mm 0.00 in0.0 mm 0.00 in0.0 mm
11:55 PM 50.2°F10.1°C 42.8°F6.0°C 72% Calm Calm -- 29.89 in1012.2 mb 0.00 in0.0 mm 0.00 in0.0 mm 0.00 in0.0 mm